Terminal Aerodrome Forecast
Issued by NWS Louisville, KY

Home | Current Version | Previous Version | Text Only | Print | Product List | Glossary On
Versions: 1 2 3 4 5 6 7 8 9 10 11 12
000
FTUS43 KLMK 011721
TAFSDF
TAF
KSDF 011721Z 0118/0224 26005KT P6SM SCT050
     FM020000 31003KT P6SM SKC
     FM021100 00000KT 6SM HZ SKC
     FM021300 30004KT P6SM SCT040=

USA.gov is the U.S. government's official web portal to all federal, state and local government web resources and services.